sensor_id;sensor_type;location;lat;lon;timestamp;pressure;altitude;pressure_sealevel;temperature;humidity
58919;BME280;44704;50.122;19.932;2023-02-04T00:00:18;97539.79;;;0.77;100.00
58919;BME280;44704;50.122;19.932;2023-02-04T00:03:05;97532.73;;;0.78;100.00
58919;BME280;44704;50.122;19.932;2023-02-04T00:05:32;97531.11;;;0.78;100.00
58919;BME280;44704;50.122;19.932;2023-02-04T00:07:59;97528.15;;;0.79;100.00
58919;BME280;44704;50.122;19.932;2023-02-04T00:10:26;97526.91;;;0.80;100.00
58919;BME280;44704;50.122;19.932;2023-02-04T00:12:53;97522.88;;;0.82;100.00
58919;BME280;44704;50.122;19.932;2023-02-04T00:15:20;97523.78;;;0.83;100.00
58919;BME280;44704;50.122;19.932;2023-02-04T00:17:47;97518.47;;;0.86;100.00
58919;BME280;44704;50.122;19.932;2023-02-04T00:20:14;97516.77;;;0.88;100.00
58919;BME280;44704;50.122;19.932;2023-02-04T00:22:41;97517.48;;;0.90;100.00
58919;BME280;44704;50.122;19.932;2023-02-04T00:25:08;97516.91;;;0.93;100.00
58919;BME280;44704;50.122;19.932;2023-02-04T00:27:35;97516.90;;;0.98;100.00
58919;BME280;44704;50.122;19.932;2023-02-04T00:30:04;97513.34;;;1.00;100.00
58919;BME280;44704;50.122;19.932;2023-02-04T00:32:32;97514.50;;;1.03;100.00
58919;BME280;44704;50.122;19.932;2023-02-04T00:34:59;97515.20;;;1.07;100.00
58919;BME280;44704;50.122;19.932;2023-02-04T00:37:27;97519.27;;;1.10;100.00
58919;BME280;44704;50.122;19.932;2023-02-04T00:39:54;97517.09;;;1.13;100.00
58919;BME280;44704;50.122;19.932;2023-02-04T00:42:21;97512.05;;;1.15;100.00
58919;BME280;44704;50.122;19.932;2023-02-04T00:44:48;97512.99;;;1.17;100.00
58919;BME280;44704;50.122;19.932;2023-02-04T00:47:15;97518.27;;;1.19;100.00
58919;BME280;44704;50.122;19.932;2023-02-04T00:49:42;97514.07;;;1.21;100.00
58919;BME280;44704;50.122;19.932;2023-02-04T00:52:09;97512.59;;;1.23;100.00
58919;BME280;44704;50.122;19.932;2023-02-04T00:54:36;97504.13;;;1.25;100.00
58919;BME280;44704;50.122;19.932;2023-02-04T00:57:03;97498.96;;;1.26;100.00
58919;BME280;44704;50.122;19.932;2023-02-04T00:59:30;97496.89;;;1.28;100.00
58919;BME280;44704;50.122;19.932;2023-02-04T01:01:57;97497.13;;;1.29;100.00
58919;BME280;44704;50.122;19.932;2023-02-04T01:04:24;97494.54;;;1.29;100.00
58919;BME280;44704;50.122;19.932;2023-02-04T01:06:51;97495.56;;;1.31;100.00
58919;BME280;44704;50.122;19.932;2023-02-04T01:09:18;97493.59;;;1.32;100.00
58919;BME280;44704;50.122;19.932;2023-02-04T01:11:45;97489.75;;;1.33;100.00
58919;BME280;44704;50.122;19.932;2023-02-04T01:14:13;97484.55;;;1.33;100.00
58919;BME280;44704;50.122;19.932;2023-02-04T01:16:40;97486.60;;;1.32;100.00
58919;BME280;44704;50.122;19.932;2023-02-04T01:19:07;97479.67;;;1.32;100.00
58919;BME280;44704;50.122;19.932;2023-02-04T01:21:34;97474.28;;;1.31;100.00
58919;BME280;44704;50.122;19.932;2023-02-04T01:24:02;97471.11;;;1.29;100.00
58919;BME280;44704;50.122;19.932;2023-02-04T01:26:29;97473.13;;;1.28;100.00
58919;BME280;44704;50.122;19.932;2023-02-04T01:28:56;97470.13;;;1.26;100.00
58919;BME280;44704;50.122;19.932;2023-02-04T01:31:24;97473.52;;;1.24;100.00
58919;BME280;44704;50.122;19.932;2023-02-04T01:33:51;97462.75;;;1.23;100.00
58919;BME280;44704;50.122;19.932;2023-02-04T01:36:18;97462.34;;;1.20;100.00
58919;BME280;44704;50.122;19.932;2023-02-04T01:38:48;97464.61;;;1.19;100.00
58919;BME280;44704;50.122;19.932;2023-02-04T01:41:16;97463.58;;;1.18;100.00
58919;BME280;44704;50.122;19.932;2023-02-04T01:43:47;97465.19;;;1.17;100.00
58919;BME280;44704;50.122;19.932;2023-02-04T01:46:15;97463.71;;;1.16;100.00
58919;BME280;44704;50.122;19.932;2023-02-04T01:48:42;97469.36;;;1.14;100.00
58919;BME280;44704;50.122;19.932;2023-02-04T01:51:13;97468.05;;;1.12;100.00
58919;BME280;44704;50.122;19.932;2023-02-04T01:53:41;97465.31;;;1.11;100.00
58919;BME280;44704;50.122;19.932;2023-02-04T01:56:21;97468.23;;;1.10;100.00
58919;BME280;44704;50.122;19.932;2023-02-04T01:58:51;97466.52;;;1.09;100.00
58919;BME280;44704;50.122;19.932;2023-02-04T02:04:13;97474.56;;;1.08;100.00
58919;BME280;44704;50.122;19.932;2023-02-04T02:07:07;97473.84;;;1.07;100.00
58919;BME280;44704;50.122;19.932;2023-02-04T02:09:35;97475.23;;;1.05;100.00
58919;BME280;44704;50.122;19.932;2023-02-04T02:12:06;97476.55;;;1.04;100.00
58919;BME280;44704;50.122;19.932;2023-02-04T02:14:33;97473.52;;;1.03;100.00
58919;BME280;44704;50.122;19.932;2023-02-04T02:17:00;97476.56;;;1.01;100.00
58919;BME280;44704;50.122;19.932;2023-02-04T02:19:32;97477.39;;;1.00;100.00
58919;BME280;44704;50.122;19.932;2023-02-04T02:22:06;97483.98;;;0.99;100.00
58919;BME280;44704;50.122;19.932;2023-02-04T02:24:36;97483.20;;;0.98;100.00
58919;BME280;44704;50.122;19.932;2023-02-04T02:27:06;97489.02;;;0.98;100.00
58919;BME280;44704;50.122;19.932;2023-02-04T02:29:35;97491.60;;;0.98;100.00
58919;BME280;44704;50.122;19.932;2023-02-04T02:32:04;97488.39;;;0.98;100.00
58919;BME280;44704;50.122;19.932;2023-02-04T02:34:32;97485.80;;;0.99;100.00
58919;BME280;44704;50.122;19.932;2023-02-04T02:37:03;97494.25;;;1.00;100.00
58919;BME280;44704;50.122;19.932;2023-02-04T02:39:30;97492.73;;;0.99;100.00
58919;BME280;44704;50.122;19.932;2023-02-04T02:41:59;97494.08;;;1.00;100.00
58919;BME280;44704;50.122;19.932;2023-02-04T02:44:28;97507.25;;;1.00;100.00
58919;BME280;44704;50.122;19.932;2023-02-04T02:46:57;97505.88;;;1.00;100.00
58919;BME280;44704;50.122;19.932;2023-02-04T02:49:25;97497.35;;;1.00;100.00
58919;BME280;44704;50.122;19.932;2023-02-04T02:51:53;97507.28;;;0.99;100.00
58919;BME280;44704;50.122;19.932;2023-02-04T02:54:27;97509.14;;;0.98;100.00
58919;BME280;44704;50.122;19.932;2023-02-04T02:56:57;97517.60;;;0.98;100.00
58919;BME280;44704;50.122;19.932;2023-02-04T02:59:25;97520.98;;;0.96;100.00
58919;BME280;44704;50.122;19.932;2023-02-04T03:02:01;97527.54;;;0.94;100.00
58919;BME280;44704;50.122;19.932;2023-02-04T03:04:33;97528.48;;;0.92;100.00
58919;BME280;44704;50.122;19.932;2023-02-04T03:07:03;97532.53;;;0.90;100.00
58919;BME280;44704;50.122;19.932;2023-02-04T03:09:32;97542.13;;;0.88;100.00
58919;BME280;44704;50.122;19.932;2023-02-04T03:11:59;97554.25;;;0.85;100.00
58919;BME280;44704;50.122;19.932;2023-02-04T03:14:26;97554.20;;;0.83;100.00
58919;BME280;44704;50.122;19.932;2023-02-04T03:16:54;97558.21;;;0.81;100.00
58919;BME280;44704;50.122;19.932;2023-02-04T03:19:25;97561.92;;;0.79;100.00
58919;BME280;44704;50.122;19.932;2023-02-04T03:21:55;97563.14;;;0.76;100.00
58919;BME280;44704;50.122;19.932;2023-02-04T03:24:23;97560.35;;;0.73;100.00
58919;BME280;44704;50.122;19.932;2023-02-04T03:26:51;97563.80;;;0.71;100.00
58919;BME280;44704;50.122;19.932;2023-02-04T03:29:18;97571.77;;;0.69;100.00
58919;BME280;44704;50.122;19.932;2023-02-04T03:31:45;97576.66;;;0.67;100.00
58919;BME280;44704;50.122;19.932;2023-02-04T03:34:12;97583.17;;;0.64;100.00
58919;BME280;44704;50.122;19.932;2023-02-04T03:36:39;97588.52;;;0.62;100.00
58919;BME280;44704;50.122;19.932;2023-02-04T03:39:06;97601.75;;;0.59;100.00
58919;BME280;44704;50.122;19.932;2023-02-04T03:41:33;97609.31;;;0.55;100.00
58919;BME280;44704;50.122;19.932;2023-02-04T03:44:00;97616.56;;;0.52;100.00
58919;BME280;44704;50.122;19.932;2023-02-04T03:46:27;97625.91;;;0.49;100.00
58919;BME280;44704;50.122;19.932;2023-02-04T03:48:54;97633.96;;;0.46;100.00
58919;BME280;44704;50.122;19.932;2023-02-04T03:51:21;97638.12;;;0.43;100.00
58919;BME280;44704;50.122;19.932;2023-02-04T03:53:48;97645.23;;;0.39;100.00
58919;BME280;44704;50.122;19.932;2023-02-04T03:56:15;97653.45;;;0.36;100.00
58919;BME280;44704;50.122;19.932;2023-02-04T03:58:43;97653.26;;;0.34;100.00
58919;BME280;44704;50.122;19.932;2023-02-04T04:01:10;97662.92;;;0.33;100.00
58919;BME280;44704;50.122;19.932;2023-02-04T04:03:37;97675.39;;;0.30;100.00
58919;BME280;44704;50.122;19.932;2023-02-04T04:06:04;97681.35;;;0.28;100.00
58919;BME280;44704;50.122;19.932;2023-02-04T04:08:33;97692.19;;;0.25;100.00
58919;BME280;44704;50.122;19.932;2023-02-04T04:11:01;97701.98;;;0.23;100.00
58919;BME280;44704;50.122;19.932;2023-02-04T04:13:29;97713.49;;;0.20;100.00
58919;BME280;44704;50.122;19.932;2023-02-04T04:15:56;97727.13;;;0.18;100.00
58919;BME280;44704;50.122;19.932;2023-02-04T04:18:23;97737.47;;;0.14;100.00
58919;BME280;44704;50.122;19.932;2023-02-04T04:20:50;97753.61;;;0.08;100.00
58919;BME280;44704;50.122;19.932;2023-02-04T04:23:17;97765.17;;;0.01;100.00
58919;BME280;44704;50.122;19.932;2023-02-04T04:25:43;97772.32;;;-0.06;100.00
58919;BME280;44704;50.122;19.932;2023-02-04T04:28:10;97783.52;;;-0.13;100.00
58919;BME280;44704;50.122;19.932;2023-02-04T04:30:38;97801.83;;;-0.18;100.00
58919;BME280;44704;50.122;19.932;2023-02-04T04:33:05;97803.98;;;-0.27;100.00
58919;BME280;44704;50.122;19.932;2023-02-04T04:35:32;97818.98;;;-0.37;100.00
58919;BME280;44704;50.122;19.932;2023-02-04T04:38:01;97830.73;;;-0.44;100.00
58919;BME280;44704;50.122;19.932;2023-02-04T04:40:28;97843.52;;;-0.52;100.00
58919;BME280;44704;50.122;19.932;2023-02-04T04:42:55;97858.36;;;-0.61;100.00
58919;BME280;44704;50.122;19.932;2023-02-04T04:45:22;97869.43;;;-0.67;100.00
58919;BME280;44704;50.122;19.932;2023-02-04T04:47:49;97884.62;;;-0.73;100.00
58919;BME280;44704;50.122;19.932;2023-02-04T04:50:16;97892.80;;;-0.78;100.00
58919;BME280;44704;50.122;19.932;2023-02-04T04:52:43;97914.56;;;-0.81;100.00
58919;BME280;44704;50.122;19.932;2023-02-04T04:55:10;97934.20;;;-0.85;100.00
58919;BME280;44704;50.122;19.932;2023-02-04T04:57:37;97940.29;;;-0.90;100.00
58919;BME280;44704;50.122;19.932;2023-02-04T05:00:06;97951.77;;;-0.99;100.00
58919;BME280;44704;50.122;19.932;2023-02-04T05:02:33;97976.35;;;-1.07;100.00
58919;BME280;44704;50.122;19.932;2023-02-04T05:05:00;97989.47;;;-1.18;100.00
58919;BME280;44704;50.122;19.932;2023-02-04T05:07:27;98013.01;;;-1.24;100.00
58919;BME280;44704;50.122;19.932;2023-02-04T05:09:54;98022.95;;;-1.31;100.00
58919;BME280;44704;50.122;19.932;2023-02-04T05:12:21;98032.65;;;-1.38;100.00
58919;BME280;44704;50.122;19.932;2023-02-04T05:14:48;98047.59;;;-1.44;100.00
58919;BME280;44704;50.122;19.932;2023-02-04T05:17:15;98062.14;;;-1.50;100.00
58919;BME280;44704;50.122;19.932;2023-02-04T05:19:42;98085.00;;;-1.53;100.00
58919;BME280;44704;50.122;19.932;2023-02-04T05:22:09;98097.26;;;-1.58;100.00
58919;BME280;44704;50.122;19.932;2023-02-04T05:24:36;98107.43;;;-1.63;100.00
58919;BME280;44704;50.122;19.932;2023-02-04T05:27:03;98123.64;;;-1.66;100.00
58919;BME280;44704;50.122;19.932;2023-02-04T05:29:30;98137.07;;;-1.72;100.00
58919;BME280;44704;50.122;19.932;2023-02-04T05:31:57;98160.69;;;-1.76;100.00
58919;BME280;44704;50.122;19.932;2023-02-04T05:34:24;98169.54;;;-1.80;100.00
58919;BME280;44704;50.122;19.932;2023-02-04T05:36:51;98186.64;;;-1.85;100.00
58919;BME280;44704;50.122;19.932;2023-02-04T05:39:18;98202.73;;;-1.89;100.00
58919;BME280;44704;50.122;19.932;2023-02-04T05:41:45;98218.25;;;-1.93;100.00
58919;BME280;44704;50.122;19.932;2023-02-04T05:44:12;98234.61;;;-1.97;100.00
58919;BME280;44704;50.122;19.932;2023-02-04T05:46:39;98248.14;;;-2.01;100.00
58919;BME280;44704;50.122;19.932;2023-02-04T05:49:06;98262.59;;;-2.02;100.00
58919;BME280;44704;50.122;19.932;2023-02-04T05:51:33;98270.73;;;-2.04;100.00
58919;BME280;44704;50.122;19.932;2023-02-04T05:54:00;98280.21;;;-2.04;100.00
58919;BME280;44704;50.122;19.932;2023-02-04T05:56:27;98295.83;;;-2.05;100.00
58919;BME280;44704;50.122;19.932;2023-02-04T05:58:54;98308.50;;;-2.07;100.00
58919;BME280;44704;50.122;19.932;2023-02-04T06:01:22;98319.61;;;-2.08;100.00
58919;BME280;44704;50.122;19.932;2023-02-04T06:03:49;98332.85;;;-2.09;100.00
58919;BME280;44704;50.122;19.932;2023-02-04T06:06:16;98348.83;;;-2.11;100.00
58919;BME280;44704;50.122;19.932;2023-02-04T06:08:43;98370.04;;;-2.11;100.00
58919;BME280;44704;50.122;19.932;2023-02-04T06:11:10;98388.08;;;-2.12;100.00
58919;BME280;44704;50.122;19.932;2023-02-04T06:13:40;98405.52;;;-2.12;100.00
58919;BME280;44704;50.122;19.932;2023-02-04T06:16:07;98422.85;;;-2.13;100.00
58919;BME280;44704;50.122;19.932;2023-02-04T06:18:34;98443.56;;;-2.13;100.00
58919;BME280;44704;50.122;19.932;2023-02-04T06:21:01;98458.36;;;-2.15;100.00
58919;BME280;44704;50.122;19.932;2023-02-04T06:23:31;98475.06;;;-2.15;100.00
58919;BME280;44704;50.122;19.932;2023-02-04T06:26:00;98480.77;;;-2.17;100.00
58919;BME280;44704;50.122;19.932;2023-02-04T06:28:27;98493.48;;;-2.19;100.00
58919;BME280;44704;50.122;19.932;2023-02-04T06:30:55;98513.50;;;-2.20;99.75
58919;BME280;44704;50.122;19.932;2023-02-04T06:33:21;98532.23;;;-2.21;99.09
58919;BME280;44704;50.122;19.932;2023-02-04T06:35:49;98542.88;;;-2.22;98.47
58919;BME280;44704;50.122;19.932;2023-02-04T06:38:16;98552.77;;;-2.22;98.28
58919;BME280;44704;50.122;19.932;2023-02-04T06:40:44;98570.55;;;-2.22;97.64
58919;BME280;44704;50.122;19.932;2023-02-04T06:43:15;98585.30;;;-2.20;97.42
58919;BME280;44704;50.122;19.932;2023-02-04T06:45:42;98595.38;;;-2.19;96.70
58919;BME280;44704;50.122;19.932;2023-02-04T06:48:09;98614.98;;;-2.18;95.36
58919;BME280;44704;50.122;19.932;2023-02-04T06:50:36;98627.96;;;-2.16;94.18
58919;BME280;44704;50.122;19.932;2023-02-04T06:53:03;98636.80;;;-2.16;94.36
58919;BME280;44704;50.122;19.932;2023-02-04T06:55:29;98653.52;;;-2.16;93.53
58919;BME280;44704;50.122;19.932;2023-02-04T06:57:56;98661.73;;;-2.14;93.52
58919;BME280;44704;50.122;19.932;2023-02-04T07:00:23;98681.93;;;-2.14;92.69
58919;BME280;44704;50.122;19.932;2023-02-04T07:02:51;98692.08;;;-2.12;92.39
58919;BME280;44704;50.122;19.932;2023-02-04T07:05:18;98710.84;;;-2.11;91.99
58919;BME280;44704;50.122;19.932;2023-02-04T07:07:45;98726.27;;;-2.09;91.81
58919;BME280;44704;50.122;19.932;2023-02-04T07:10:13;98733.46;;;-2.08;91.75
58919;BME280;44704;50.122;19.932;2023-02-04T07:12:40;98747.61;;;-2.07;91.55
58919;BME280;44704;50.122;19.932;2023-02-04T07:15:08;98758.05;;;-2.05;91.76
58919;BME280;44704;50.122;19.932;2023-02-04T07:17:35;98771.72;;;-2.03;91.33
58919;BME280;44704;50.122;19.932;2023-02-04T07:20:02;98782.40;;;-2.03;90.87
58919;BME280;44704;50.122;19.932;2023-02-04T07:22:29;98795.87;;;-2.02;91.22
58919;BME280;44704;50.122;19.932;2023-02-04T07:24:56;98810.18;;;-2.01;90.94
58919;BME280;44704;50.122;19.932;2023-02-04T07:27:23;98815.82;;;-2.01;89.88
58919;BME280;44704;50.122;19.932;2023-02-04T07:29:51;98831.30;;;-2.01;90.05
58919;BME280;44704;50.122;19.932;2023-02-04T07:32:18;98839.52;;;-2.01;89.51
58919;BME280;44704;50.122;19.932;2023-02-04T07:34:45;98847.38;;;-2.00;89.88
58919;BME280;44704;50.122;19.932;2023-02-04T07:37:13;98865.56;;;-1.98;89.63
58919;BME280;44704;50.122;19.932;2023-02-04T07:39:40;98871.52;;;-1.98;89.35
58919;BME280;44704;50.122;19.932;2023-02-04T07:42:08;98886.86;;;-1.94;89.13
58919;BME280;44704;50.122;19.932;2023-02-04T07:44:41;98896.37;;;-1.91;88.45
58919;BME280;44704;50.122;19.932;2023-02-04T07:47:08;98905.55;;;-1.89;87.74
58919;BME280;44704;50.122;19.932;2023-02-04T07:49:35;98916.83;;;-1.86;87.91
58919;BME280;44704;50.122;19.932;2023-02-04T07:52:02;98922.44;;;-1.82;88.59
58919;BME280;44704;50.122;19.932;2023-02-04T07:54:29;98929.68;;;-1.76;87.82
58919;BME280;44704;50.122;19.932;2023-02-04T07:56:56;98939.95;;;-1.74;87.23
58919;BME280;44704;50.122;19.932;2023-02-04T07:59:23;98945.27;;;-1.70;86.80
58919;BME280;44704;50.122;19.932;2023-02-04T08:01:50;98947.86;;;-1.65;86.81
58919;BME280;44704;50.122;19.932;2023-02-04T08:04:17;98962.64;;;-1.65;86.19
58919;BME280;44704;50.122;19.932;2023-02-04T08:06:45;98964.95;;;-1.69;85.87
58919;BME280;44704;50.122;19.932;2023-02-04T08:09:12;98974.84;;;-1.68;85.72
58919;BME280;44704;50.122;19.932;2023-02-04T08:11:39;98985.65;;;-1.66;84.77
58919;BME280;44704;50.122;19.932;2023-02-04T08:14:06;98988.09;;;-1.64;84.59
58919;BME280;44704;50.122;19.932;2023-02-04T08:16:33;98994.20;;;-1.59;84.51
58919;BME280;44704;50.122;19.932;2023-02-04T08:19:00;98998.05;;;-1.49;84.30
58919;BME280;44704;50.122;19.932;2023-02-04T08:21:27;99006.66;;;-1.39;84.15
58919;BME280;44704;50.122;19.932;2023-02-04T08:23:54;99018.70;;;-1.32;84.32
58919;BME280;44704;50.122;19.932;2023-02-04T08:26:21;99016.92;;;-1.26;83.12
58919;BME280;44704;50.122;19.932;2023-02-04T08:28:48;99024.91;;;-1.20;82.57
58919;BME280;44704;50.122;19.932;2023-02-04T08:31:15;99027.05;;;-1.19;82.12
58919;BME280;44704;50.122;19.932;2023-02-04T08:33:42;99038.83;;;-1.21;80.99
58919;BME280;44704;50.122;19.932;2023-02-04T08:36:09;99045.63;;;-1.24;80.78
58919;BME280;44704;50.122;19.932;2023-02-04T08:38:36;99047.09;;;-1.25;81.26
58919;BME280;44704;50.122;19.932;2023-02-04T08:41:03;99056.94;;;-1.24;80.79
58919;BME280;44704;50.122;19.932;2023-02-04T08:43:30;99061.89;;;-1.23;80.77
58919;BME280;44704;50.122;19.932;2023-02-04T08:45:57;99072.00;;;-1.25;81.08
58919;BME280;44704;50.122;19.932;2023-02-04T08:48:25;99074.50;;;-1.28;80.46
58919;BME280;44704;50.122;19.932;2023-02-04T08:50:52;99074.58;;;-1.31;80.67
58919;BME280;44704;50.122;19.932;2023-02-04T08:53:19;99087.43;;;-1.35;80.04
58919;BME280;44704;50.122;19.932;2023-02-04T08:55:46;99093.22;;;-1.40;80.57
58919;BME280;44704;50.122;19.932;2023-02-04T08:58:13;99103.00;;;-1.39;80.55
58919;BME280;44704;50.122;19.932;2023-02-04T09:00:41;99113.04;;;-1.33;80.57
58919;BME280;44704;50.122;19.932;2023-02-04T09:03:09;99116.98;;;-1.19;80.58
58919;BME280;44704;50.122;19.932;2023-02-04T09:05:36;99124.88;;;-1.01;81.13
58919;BME280;44704;50.122;19.932;2023-02-04T09:08:03;99133.23;;;-0.87;80.78
58919;BME280;44704;50.122;19.932;2023-02-04T09:10:30;99135.16;;;-0.72;80.62
58919;BME280;44704;50.122;19.932;2023-02-04T09:12:57;99144.13;;;-0.59;80.06
58919;BME280;44704;50.122;19.932;2023-02-04T09:15:24;99152.54;;;-0.54;78.97
58919;BME280;44704;50.122;19.932;2023-02-04T09:17:52;99155.37;;;-0.52;79.07
58919;BME280;44704;50.122;19.932;2023-02-04T09:20:22;99161.08;;;-0.50;79.34
58919;BME280;44704;50.122;19.932;2023-02-04T09:22:50;99164.84;;;-0.47;78.94
58919;BME280;44704;50.122;19.932;2023-02-04T09:25:17;99164.19;;;-0.45;78.62
58919;BME280;44704;50.122;19.932;2023-02-04T09:27:44;99170.06;;;-0.54;77.95
58919;BME280;44704;50.122;19.932;2023-02-04T09:30:12;99178.12;;;-0.60;78.33
58919;BME280;44704;50.122;19.932;2023-02-04T09:32:39;99182.88;;;-0.58;77.94
58919;BME280;44704;50.122;19.932;2023-02-04T09:35:07;99192.40;;;-0.55;78.15
58919;BME280;44704;50.122;19.932;2023-02-04T09:37:34;99188.50;;;-0.46;78.70
58919;BME280;44704;50.122;19.932;2023-02-04T09:40:01;99194.40;;;-0.27;78.35
58919;BME280;44704;50.122;19.932;2023-02-04T09:42:28;99194.17;;;-0.06;77.84
58919;BME280;44704;50.122;19.932;2023-02-04T09:44:56;99201.02;;;0.18;77.87
58919;BME280;44704;50.122;19.932;2023-02-04T09:47:24;99201.95;;;0.30;75.96
58919;BME280;44704;50.122;19.932;2023-02-04T09:49:52;99205.45;;;0.34;76.14
58919;BME280;44704;50.122;19.932;2023-02-04T09:52:19;99217.29;;;0.32;76.46
58919;BME280;44704;50.122;19.932;2023-02-04T09:54:47;99220.50;;;0.16;75.72
58919;BME280;44704;50.122;19.932;2023-02-04T09:57:16;99221.02;;;0.01;76.56
58919;BME280;44704;50.122;19.932;2023-02-04T09:59:44;99230.65;;;-0.10;77.03
58919;BME280;44704;50.122;19.932;2023-02-04T10:02:25;99228.42;;;-0.17;77.20
58919;BME280;44704;50.122;19.932;2023-02-04T10:04:55;99230.45;;;-0.15;76.98
58919;BME280;44704;50.122;19.932;2023-02-04T10:07:23;99238.98;;;-0.13;77.24
58919;BME280;44704;50.122;19.932;2023-02-04T10:09:52;99242.88;;;-0.23;77.41
58919;BME280;44704;50.122;19.932;2023-02-04T10:12:20;99244.21;;;-0.36;77.66
58919;BME280;44704;50.122;19.932;2023-02-04T10:14:48;99240.56;;;-0.49;78.04
58919;BME280;44704;50.122;19.932;2023-02-04T10:17:19;99245.86;;;-0.56;78.29
58919;BME280;44704;50.122;19.932;2023-02-04T10:19:48;99241.31;;;-0.64;77.75
58919;BME280;44704;50.122;19.932;2023-02-04T10:22:20;99244.85;;;-0.73;77.79
58919;BME280;44704;50.122;19.932;2023-02-04T10:24:48;99246.86;;;-0.82;77.54
58919;BME280;44704;50.122;19.932;2023-02-04T10:27:15;99250.05;;;-0.81;77.12
58919;BME280;44704;50.122;19.932;2023-02-04T10:29:42;99262.74;;;-0.79;75.13
58919;BME280;44704;50.122;19.932;2023-02-04T10:32:30;99263.77;;;-0.77;74.55
58919;BME280;44704;50.122;19.932;2023-02-04T10:35:01;99269.66;;;-0.71;73.58
58919;BME280;44704;50.122;19.932;2023-02-04T10:37:28;99272.25;;;-0.67;74.17
58919;BME280;44704;50.122;19.932;2023-02-04T10:39:57;99277.58;;;-0.61;73.42
58919;BME280;44704;50.122;19.932;2023-02-04T10:42:26;99282.53;;;-0.54;73.99
58919;BME280;44704;50.122;19.932;2023-02-04T10:44:54;99282.94;;;-0.58;72.06
58919;BME280;44704;50.122;19.932;2023-02-04T10:47:26;99288.91;;;-0.55;72.28
58919;BME280;44704;50.122;19.932;2023-02-04T10:50:00;99297.79;;;-0.53;71.96
58919;BME280;44704;50.122;19.932;2023-02-04T10:52:37;99304.66;;;-0.48;72.05
58919;BME280;44704;50.122;19.932;2023-02-04T10:55:10;99309.41;;;-0.44;71.25
58919;BME280;44704;50.122;19.932;2023-02-04T10:57:40;99313.41;;;-0.42;71.12
58919;BME280;44704;50.122;19.932;2023-02-04T11:00:16;99316.55;;;-0.28;71.73
58919;BME280;44704;50.122;19.932;2023-02-04T11:03:08;99319.58;;;-0.05;70.46
58919;BME280;44704;50.122;19.932;2023-02-04T11:05:37;99319.50;;;0.43;69.25
58919;BME280;44704;50.122;19.932;2023-02-04T11:08:22;99327.05;;;0.58;67.64
58919;BME280;44704;50.122;19.932;2023-02-04T11:11:07;99325.74;;;0.29;65.83
58919;BME280;44704;50.122;19.932;2023-02-04T11:13:56;99325.42;;;-0.03;66.43
58919;BME280;44704;50.122;19.932;2023-02-04T11:16:32;99327.92;;;0.01;66.46
58919;BME280;44704;50.122;19.932;2023-02-04T11:19:09;99331.37;;;0.14;66.31
58919;BME280;44704;50.122;19.932;2023-02-04T11:26:44;99341.50;;;-0.35;67.19
58919;BME280;44704;50.122;19.932;2023-02-04T11:39:34;99353.89;;;-0.36;66.07
58919;BME280;44704;50.122;19.932;2023-02-04T11:42:04;99354.85;;;-0.49;65.59
58919;BME280;44704;50.122;19.932;2023-02-04T11:44:32;99352.54;;;-0.69;65.69
58919;BME280;44704;50.122;19.932;2023-02-04T11:47:00;99359.77;;;-0.72;66.94
58919;BME280;44704;50.122;19.932;2023-02-04T11:49:29;99363.73;;;-0.70;67.83
58919;BME280;44704;50.122;19.932;2023-02-04T11:52:06;99359.94;;;-0.65;68.67
58919;BME280;44704;50.122;19.932;2023-02-04T11:54:37;99367.91;;;-0.61;68.00
58919;BME280;44704;50.122;19.932;2023-02-04T11:57:05;99372.34;;;-0.64;67.76
58919;BME280;44704;50.122;19.932;2023-02-04T11:59:32;99385.30;;;-0.74;67.46
58919;BME280;44704;50.122;19.932;2023-02-04T12:02:23;99393.08;;;-0.83;67.92
58919;BME280;44704;50.122;19.932;2023-02-04T12:04:56;99398.58;;;-0.73;68.10
58919;BME280;44704;50.122;19.932;2023-02-04T12:07:27;99400.73;;;-0.68;67.07
58919;BME280;44704;50.122;19.932;2023-02-04T12:09:55;99392.63;;;-0.71;67.03
58919;BME280;44704;50.122;19.932;2023-02-04T12:12:28;99394.18;;;-0.63;67.16
58919;BME280;44704;50.122;19.932;2023-02-04T12:15:14;99397.45;;;-0.52;67.09
58919;BME280;44704;50.122;19.932;2023-02-04T12:17:45;99399.77;;;-0.25;65.42
58919;BME280;44704;50.122;19.932;2023-02-04T12:20:13;99404.44;;;-0.07;64.59
58919;BME280;44704;50.122;19.932;2023-02-04T12:22:40;99411.10;;;-0.13;64.14
58919;BME280;44704;50.122;19.932;2023-02-04T12:25:07;99410.51;;;-0.29;63.69
58919;BME280;44704;50.122;19.932;2023-02-04T12:27:34;99418.47;;;-0.45;62.91
58919;BME280;44704;50.122;19.932;2023-02-04T12:30:01;99422.94;;;-0.49;63.03
58919;BME280;44704;50.122;19.932;2023-02-04T12:32:28;99419.41;;;-0.38;63.59
58919;BME280;44704;50.122;19.932;2023-02-04T12:34:55;99418.98;;;-0.22;63.99
58919;BME280;44704;50.122;19.932;2023-02-04T12:37:23;99421.66;;;-0.12;62.54
58919;BME280;44704;50.122;19.932;2023-02-04T12:39:50;99430.98;;;-0.18;62.26
58919;BME280;44704;50.122;19.932;2023-02-04T12:42:18;99424.02;;;-0.36;60.57
58919;BME280;44704;50.122;19.932;2023-02-04T12:44:45;99444.61;;;-0.55;60.56
58919;BME280;44704;50.122;19.932;2023-02-04T12:47:11;99443.41;;;-0.68;60.57
58919;BME280;44704;50.122;19.932;2023-02-04T12:49:38;99448.46;;;-0.76;60.67
58919;BME280;44704;50.122;19.932;2023-02-04T12:52:05;99451.36;;;-0.83;61.63
58919;BME280;44704;50.122;19.932;2023-02-04T12:54:32;99456.11;;;-0.89;62.01
58919;BME280;44704;50.122;19.932;2023-02-04T12:56:59;99458.92;;;-1.04;62.25
58919;BME280;44704;50.122;19.932;2023-02-04T12:59:28;99466.16;;;-1.17;63.80
58919;BME280;44704;50.122;19.932;2023-02-04T13:01:57;99470.73;;;-1.25;64.24
58919;BME280;44704;50.122;19.932;2023-02-04T13:04:24;99468.13;;;-1.28;64.56
58919;BME280;44704;50.122;19.932;2023-02-04T13:06:51;99474.70;;;-1.37;65.70
58919;BME280;44704;50.122;19.932;2023-02-04T13:09:18;99475.21;;;-1.50;66.16
58919;BME280;44704;50.122;19.932;2023-02-04T13:11:45;99479.48;;;-1.58;65.98